sensor_id;sensor_type;location;lat;lon;timestamp;P1;durP1;ratioP1;P2;durP2;ratioP2
6825;SDS011;3451;52.476;13.316;2022-12-10T00:03:31;19.90;;;12.00;;
6825;SDS011;3451;52.476;13.316;2022-12-10T00:06:04;22.37;;;12.30;;
6825;SDS011;3451;52.476;13.316;2022-12-10T00:08:31;19.73;;;11.53;;
6825;SDS011;3451;52.476;13.316;2022-12-10T00:10:58;21.87;;;11.83;;
6825;SDS011;3451;52.476;13.316;2022-12-10T00:13:25;21.80;;;12.23;;
6825;SDS011;3451;52.476;13.316;2022-12-10T00:15:51;23.17;;;12.83;;
6825;SDS011;3451;52.476;13.316;2022-12-10T00:18:17;24.13;;;12.80;;
6825;SDS011;3451;52.476;13.316;2022-12-10T00:20:44;22.83;;;12.47;;
6825;SDS011;3451;52.476;13.316;2022-12-10T00:23:10;24.47;;;12.63;;
6825;SDS011;3451;52.476;13.316;2022-12-10T00:25:36;24.80;;;13.10;;
6825;SDS011;3451;52.476;13.316;2022-12-10T00:28:02;26.03;;;12.43;;
6825;SDS011;3451;52.476;13.316;2022-12-10T00:30:29;20.70;;;12.03;;
6825;SDS011;3451;52.476;13.316;2022-12-10T00:32:55;24.03;;;13.03;;
6825;SDS011;3451;52.476;13.316;2022-12-10T00:35:21;22.77;;;13.17;;
6825;SDS011;3451;52.476;13.316;2022-12-10T00:37:48;26.73;;;13.27;;
6825;SDS011;3451;52.476;13.316;2022-12-10T00:40:15;23.80;;;12.50;;
6825;SDS011;3451;52.476;13.316;2022-12-10T00:42:41;23.93;;;12.93;;
6825;SDS011;3451;52.476;13.316;2022-12-10T00:45:07;29.37;;;13.30;;
6825;SDS011;3451;52.476;13.316;2022-12-10T00:47:34;23.50;;;12.37;;
6825;SDS011;3451;52.476;13.316;2022-12-10T00:50:01;25.27;;;13.83;;
6825;SDS011;3451;52.476;13.316;2022-12-10T00:52:27;23.23;;;12.13;;
6825;SDS011;3451;52.476;13.316;2022-12-10T00:54:53;21.07;;;11.87;;
6825;SDS011;3451;52.476;13.316;2022-12-10T00:57:19;27.50;;;13.80;;
6825;SDS011;3451;52.476;13.316;2022-12-10T00:59:45;24.50;;;13.60;;
6825;SDS011;3451;52.476;13.316;2022-12-10T01:02:12;23.40;;;13.03;;
6825;SDS011;3451;52.476;13.316;2022-12-10T01:04:38;25.80;;;12.60;;
6825;SDS011;3451;52.476;13.316;2022-12-10T01:07:04;24.60;;;12.80;;
6825;SDS011;3451;52.476;13.316;2022-12-10T01:09:36;23.47;;;12.73;;
6825;SDS011;3451;52.476;13.316;2022-12-10T01:12:02;24.73;;;13.00;;
6825;SDS011;3451;52.476;13.316;2022-12-10T01:14:30;22.33;;;12.07;;
6825;SDS011;3451;52.476;13.316;2022-12-10T01:16:59;23.33;;;13.17;;
6825;SDS011;3451;52.476;13.316;2022-12-10T01:19:25;24.67;;;13.33;;
6825;SDS011;3451;52.476;13.316;2022-12-10T01:21:52;28.93;;;13.93;;
6825;SDS011;3451;52.476;13.316;2022-12-10T01:24:19;26.57;;;13.53;;
6825;SDS011;3451;52.476;13.316;2022-12-10T01:26:46;28.77;;;13.77;;
6825;SDS011;3451;52.476;13.316;2022-12-10T01:29:12;26.97;;;13.43;;
6825;SDS011;3451;52.476;13.316;2022-12-10T01:31:39;23.80;;;12.07;;
6825;SDS011;3451;52.476;13.316;2022-12-10T01:34:06;24.30;;;13.07;;
6825;SDS011;3451;52.476;13.316;2022-12-10T01:36:33;24.93;;;13.50;;
6825;SDS011;3451;52.476;13.316;2022-12-10T01:39:01;25.60;;;12.43;;
6825;SDS011;3451;52.476;13.316;2022-12-10T01:41:29;23.43;;;12.13;;
6825;SDS011;3451;52.476;13.316;2022-12-10T01:44:03;26.03;;;13.43;;
6825;SDS011;3451;52.476;13.316;2022-12-10T01:46:32;23.30;;;11.90;;
6825;SDS011;3451;52.476;13.316;2022-12-10T01:48:59;24.80;;;13.07;;
6825;SDS011;3451;52.476;13.316;2022-12-10T01:51:28;29.63;;;14.37;;
6825;SDS011;3451;52.476;13.316;2022-12-10T01:53:58;24.87;;;11.70;;
6825;SDS011;3451;52.476;13.316;2022-12-10T01:56:25;21.17;;;11.43;;
6825;SDS011;3451;52.476;13.316;2022-12-10T01:58:51;24.27;;;12.90;;
6825;SDS011;3451;52.476;13.316;2022-12-10T02:01:28;22.17;;;11.90;;
6825;SDS011;3451;52.476;13.316;2022-12-10T02:04:19;25.97;;;13.00;;
6825;SDS011;3451;52.476;13.316;2022-12-10T02:06:56;23.27;;;11.90;;
6825;SDS011;3451;52.476;13.316;2022-12-10T02:11:57;19.57;;;11.87;;
6825;SDS011;3451;52.476;13.316;2022-12-10T02:14:28;22.53;;;11.70;;
6825;SDS011;3451;52.476;13.316;2022-12-10T02:16:56;20.00;;;11.37;;
6825;SDS011;3451;52.476;13.316;2022-12-10T02:21:51;22.17;;;11.70;;
6825;SDS011;3451;52.476;13.316;2022-12-10T02:24:21;23.43;;;12.10;;
6825;SDS011;3451;52.476;13.316;2022-12-10T02:26:51;22.30;;;11.70;;
6825;SDS011;3451;52.476;13.316;2022-12-10T02:29:20;22.27;;;11.50;;
6825;SDS011;3451;52.476;13.316;2022-12-10T02:32:04;23.07;;;12.27;;
6825;SDS011;3451;52.476;13.316;2022-12-10T02:34:33;21.47;;;11.33;;
6825;SDS011;3451;52.476;13.316;2022-12-10T02:37:03;19.93;;;11.30;;
6825;SDS011;3451;52.476;13.316;2022-12-10T02:39:33;21.87;;;12.13;;
6825;SDS011;3451;52.476;13.316;2022-12-10T02:41:59;20.37;;;11.90;;
6825;SDS011;3451;52.476;13.316;2022-12-10T02:44:27;17.33;;;10.50;;
6825;SDS011;3451;52.476;13.316;2022-12-10T02:46:55;20.57;;;11.83;;
6825;SDS011;3451;52.476;13.316;2022-12-10T02:49:22;24.83;;;11.90;;
6825;SDS011;3451;52.476;13.316;2022-12-10T02:51:49;21.73;;;12.10;;
6825;SDS011;3451;52.476;13.316;2022-12-10T02:54:33;21.50;;;12.00;;
6825;SDS011;3451;52.476;13.316;2022-12-10T02:57:00;20.73;;;11.43;;
6825;SDS011;3451;52.476;13.316;2022-12-10T02:59:29;21.30;;;11.30;;
6825;SDS011;3451;52.476;13.316;2022-12-10T03:02:04;23.27;;;11.80;;
6825;SDS011;3451;52.476;13.316;2022-12-10T03:07:00;21.43;;;12.00;;
6825;SDS011;3451;52.476;13.316;2022-12-10T03:09:30;21.70;;;12.33;;
6825;SDS011;3451;52.476;13.316;2022-12-10T03:11:59;24.37;;;11.97;;
6825;SDS011;3451;52.476;13.316;2022-12-10T03:14:31;23.17;;;12.17;;
6825;SDS011;3451;52.476;13.316;2022-12-10T03:16:59;23.47;;;12.23;;
6825;SDS011;3451;52.476;13.316;2022-12-10T03:19:34;24.43;;;12.67;;
6825;SDS011;3451;52.476;13.316;2022-12-10T03:22:02;21.67;;;11.83;;
6825;SDS011;3451;52.476;13.316;2022-12-10T03:24:29;24.07;;;12.77;;
6825;SDS011;3451;52.476;13.316;2022-12-10T03:26:56;25.23;;;12.43;;
6825;SDS011;3451;52.476;13.316;2022-12-10T03:29:24;25.57;;;12.90;;
6825;SDS011;3451;52.476;13.316;2022-12-10T03:31:53;27.73;;;12.90;;
6825;SDS011;3451;52.476;13.316;2022-12-10T03:34:19;22.93;;;12.50;;
6825;SDS011;3451;52.476;13.316;2022-12-10T03:36:46;23.43;;;12.87;;
6825;SDS011;3451;52.476;13.316;2022-12-10T03:39:13;22.50;;;12.03;;
6825;SDS011;3451;52.476;13.316;2022-12-10T03:41:39;22.77;;;12.37;;
6825;SDS011;3451;52.476;13.316;2022-12-10T03:44:06;24.17;;;13.10;;
6825;SDS011;3451;52.476;13.316;2022-12-10T03:46:32;23.97;;;13.00;;
6825;SDS011;3451;52.476;13.316;2022-12-10T03:48:59;25.80;;;13.47;;
6825;SDS011;3451;52.476;13.316;2022-12-10T03:51:25;24.93;;;13.60;;
6825;SDS011;3451;52.476;13.316;2022-12-10T03:53:52;27.00;;;13.63;;
6825;SDS011;3451;52.476;13.316;2022-12-10T03:56:18;27.83;;;14.57;;
6825;SDS011;3451;52.476;13.316;2022-12-10T03:58:45;24.30;;;13.63;;
6825;SDS011;3451;52.476;13.316;2022-12-10T04:01:11;27.63;;;13.80;;
6825;SDS011;3451;52.476;13.316;2022-12-10T04:03:38;26.60;;;14.17;;
6825;SDS011;3451;52.476;13.316;2022-12-10T04:06:06;27.33;;;13.73;;
6825;SDS011;3451;52.476;13.316;2022-12-10T04:08:33;28.53;;;13.47;;
6825;SDS011;3451;52.476;13.316;2022-12-10T04:11:07;28.77;;;14.33;;
6825;SDS011;3451;52.476;13.316;2022-12-10T04:13:33;28.07;;;13.73;;
6825;SDS011;3451;52.476;13.316;2022-12-10T04:16:18;26.47;;;13.63;;
6825;SDS011;3451;52.476;13.316;2022-12-10T04:18:58;25.07;;;13.97;;
6825;SDS011;3451;52.476;13.316;2022-12-10T04:21:27;26.73;;;13.83;;
6825;SDS011;3451;52.476;13.316;2022-12-10T04:24:13;26.37;;;13.57;;
6825;SDS011;3451;52.476;13.316;2022-12-10T04:27:00;24.90;;;13.33;;
6825;SDS011;3451;52.476;13.316;2022-12-10T04:29:28;25.67;;;14.00;;
6825;SDS011;3451;52.476;13.316;2022-12-10T04:31:55;26.57;;;14.23;;
6825;SDS011;3451;52.476;13.316;2022-12-10T04:34:23;25.83;;;14.03;;
6825;SDS011;3451;52.476;13.316;2022-12-10T04:36:49;27.47;;;13.87;;
6825;SDS011;3451;52.476;13.316;2022-12-10T04:39:16;24.97;;;13.90;;
6825;SDS011;3451;52.476;13.316;2022-12-10T04:41:47;28.03;;;14.33;;
6825;SDS011;3451;52.476;13.316;2022-12-10T04:44:14;27.10;;;14.50;;
6825;SDS011;3451;52.476;13.316;2022-12-10T04:46:40;25.27;;;13.83;;
6825;SDS011;3451;52.476;13.316;2022-12-10T04:49:06;24.57;;;13.67;;
6825;SDS011;3451;52.476;13.316;2022-12-10T04:51:33;26.63;;;13.73;;
6825;SDS011;3451;52.476;13.316;2022-12-10T04:53:59;26.30;;;14.07;;
6825;SDS011;3451;52.476;13.316;2022-12-10T04:56:26;25.33;;;13.80;;
6825;SDS011;3451;52.476;13.316;2022-12-10T04:58:52;28.93;;;14.83;;
6825;SDS011;3451;52.476;13.316;2022-12-10T05:01:18;23.73;;;12.90;;
6825;SDS011;3451;52.476;13.316;2022-12-10T05:03:44;27.20;;;14.77;;
6825;SDS011;3451;52.476;13.316;2022-12-10T05:06:12;26.37;;;14.23;;
6825;SDS011;3451;52.476;13.316;2022-12-10T05:08:39;26.23;;;14.57;;
6825;SDS011;3451;52.476;13.316;2022-12-10T05:11:07;23.90;;;13.33;;
6825;SDS011;3451;52.476;13.316;2022-12-10T05:13:33;26.40;;;13.90;;
6825;SDS011;3451;52.476;13.316;2022-12-10T05:16:03;26.73;;;14.60;;
6825;SDS011;3451;52.476;13.316;2022-12-10T05:18:30;26.77;;;13.63;;
6825;SDS011;3451;52.476;13.316;2022-12-10T05:21:00;24.47;;;14.27;;
6825;SDS011;3451;52.476;13.316;2022-12-10T05:23:26;25.47;;;14.30;;
6825;SDS011;3451;52.476;13.316;2022-12-10T05:26:05;23.83;;;13.03;;
6825;SDS011;3451;52.476;13.316;2022-12-10T05:28:36;23.97;;;12.77;;
6825;SDS011;3451;52.476;13.316;2022-12-10T05:31:03;26.07;;;13.40;;
6825;SDS011;3451;52.476;13.316;2022-12-10T05:33:30;22.10;;;12.30;;
6825;SDS011;3451;52.476;13.316;2022-12-10T05:35:57;23.07;;;12.90;;
6825;SDS011;3451;52.476;13.316;2022-12-10T05:38:24;23.77;;;13.63;;
6825;SDS011;3451;52.476;13.316;2022-12-10T05:40:51;22.40;;;12.67;;
6825;SDS011;3451;52.476;13.316;2022-12-10T05:43:22;24.33;;;13.03;;
6825;SDS011;3451;52.476;13.316;2022-12-10T05:45:48;23.23;;;12.97;;
6825;SDS011;3451;52.476;13.316;2022-12-10T05:48:14;21.93;;;12.57;;
6825;SDS011;3451;52.476;13.316;2022-12-10T05:50:41;22.53;;;12.43;;
6825;SDS011;3451;52.476;13.316;2022-12-10T05:53:08;21.53;;;12.33;;
6825;SDS011;3451;52.476;13.316;2022-12-10T05:55:34;21.73;;;12.67;;
6825;SDS011;3451;52.476;13.316;2022-12-10T05:58:01;24.23;;;13.20;;
6825;SDS011;3451;52.476;13.316;2022-12-10T06:00:27;21.83;;;13.03;;
6825;SDS011;3451;52.476;13.316;2022-12-10T06:02:54;20.47;;;12.07;;
6825;SDS011;3451;52.476;13.316;2022-12-10T06:05:20;20.83;;;12.10;;
6825;SDS011;3451;52.476;13.316;2022-12-10T06:07:46;23.60;;;12.47;;
6825;SDS011;3451;52.476;13.316;2022-12-10T06:10:13;23.47;;;12.83;;
6825;SDS011;3451;52.476;13.316;2022-12-10T06:12:39;21.97;;;12.77;;
6825;SDS011;3451;52.476;13.316;2022-12-10T06:15:05;21.27;;;12.20;;
6825;SDS011;3451;52.476;13.316;2022-12-10T06:17:32;23.27;;;12.30;;
6825;SDS011;3451;52.476;13.316;2022-12-10T06:19:58;19.47;;;11.30;;
6825;SDS011;3451;52.476;13.316;2022-12-10T06:22:24;21.90;;;12.57;;
6825;SDS011;3451;52.476;13.316;2022-12-10T06:24:50;20.93;;;11.60;;
6825;SDS011;3451;52.476;13.316;2022-12-10T06:27:17;21.60;;;12.37;;
6825;SDS011;3451;52.476;13.316;2022-12-10T06:29:44;21.80;;;11.63;;
6825;SDS011;3451;52.476;13.316;2022-12-10T06:32:10;22.27;;;12.07;;
6825;SDS011;3451;52.476;13.316;2022-12-10T06:34:36;19.30;;;11.00;;
6825;SDS011;3451;52.476;13.316;2022-12-10T06:37:08;19.90;;;11.77;;
6825;SDS011;3451;52.476;13.316;2022-12-10T06:39:34;19.80;;;11.60;;
6825;SDS011;3451;52.476;13.316;2022-12-10T06:42:00;22.33;;;11.93;;
6825;SDS011;3451;52.476;13.316;2022-12-10T06:44:27;22.87;;;12.00;;
6825;SDS011;3451;52.476;13.316;2022-12-10T06:46:54;21.73;;;11.87;;
6825;SDS011;3451;52.476;13.316;2022-12-10T06:49:20;21.50;;;12.63;;
6825;SDS011;3451;52.476;13.316;2022-12-10T06:51:47;20.97;;;11.27;;
6825;SDS011;3451;52.476;13.316;2022-12-10T06:54:14;20.33;;;12.00;;
6825;SDS011;3451;52.476;13.316;2022-12-10T06:56:40;18.50;;;11.00;;
6825;SDS011;3451;52.476;13.316;2022-12-10T06:59:06;18.70;;;11.03;;
6825;SDS011;3451;52.476;13.316;2022-12-10T07:01:33;20.00;;;11.50;;
6825;SDS011;3451;52.476;13.316;2022-12-10T07:04:00;20.90;;;11.87;;
6825;SDS011;3451;52.476;13.316;2022-12-10T07:06:27;20.40;;;11.30;;
6825;SDS011;3451;52.476;13.316;2022-12-10T07:08:54;17.03;;;10.67;;
6825;SDS011;3451;52.476;13.316;2022-12-10T07:11:21;17.57;;;10.30;;
6825;SDS011;3451;52.476;13.316;2022-12-10T07:13:48;19.43;;;10.50;;
6825;SDS011;3451;52.476;13.316;2022-12-10T07:16:16;18.07;;;10.57;;
6825;SDS011;3451;52.476;13.316;2022-12-10T07:18:43;20.47;;;11.47;;
6825;SDS011;3451;52.476;13.316;2022-12-10T07:21:18;18.97;;;11.17;;
6825;SDS011;3451;52.476;13.316;2022-12-10T07:23:45;16.37;;;10.70;;
6825;SDS011;3451;52.476;13.316;2022-12-10T07:26:11;20.60;;;11.17;;
6825;SDS011;3451;52.476;13.316;2022-12-10T07:28:37;19.37;;;11.43;;
6825;SDS011;3451;52.476;13.316;2022-12-10T07:31:17;19.77;;;10.43;;
6825;SDS011;3451;52.476;13.316;2022-12-10T07:33:43;18.33;;;10.97;;
6825;SDS011;3451;52.476;13.316;2022-12-10T07:36:10;17.60;;;10.77;;
6825;SDS011;3451;52.476;13.316;2022-12-10T07:38:37;18.90;;;11.07;;
6825;SDS011;3451;52.476;13.316;2022-12-10T07:41:05;17.17;;;10.97;;
6825;SDS011;3451;52.476;13.316;2022-12-10T07:43:38;17.47;;;10.50;;
6825;SDS011;3451;52.476;13.316;2022-12-10T07:46:09;18.57;;;11.30;;
6825;SDS011;3451;52.476;13.316;2022-12-10T07:48:36;17.70;;;10.43;;
6825;SDS011;3451;52.476;13.316;2022-12-10T07:51:03;15.27;;;9.80;;
6825;SDS011;3451;52.476;13.316;2022-12-10T07:53:30;15.53;;;9.83;;
6825;SDS011;3451;52.476;13.316;2022-12-10T07:55:56;17.60;;;10.27;;
6825;SDS011;3451;52.476;13.316;2022-12-10T07:58:22;23.43;;;10.27;;
6825;SDS011;3451;52.476;13.316;2022-12-10T08:00:49;18.63;;;10.90;;
6825;SDS011;3451;52.476;13.316;2022-12-10T08:03:15;18.87;;;11.27;;
6825;SDS011;3451;52.476;13.316;2022-12-10T08:05:42;17.27;;;11.03;;
6825;SDS011;3451;52.476;13.316;2022-12-10T08:08:08;17.57;;;10.67;;
6825;SDS011;3451;52.476;13.316;2022-12-10T08:10:35;16.70;;;10.13;;
6825;SDS011;3451;52.476;13.316;2022-12-10T08:13:01;17.43;;;10.87;;
6825;SDS011;3451;52.476;13.316;2022-12-10T08:15:27;18.43;;;10.67;;
6825;SDS011;3451;52.476;13.316;2022-12-10T08:17:57;17.70;;;11.30;;
6825;SDS011;3451;52.476;13.316;2022-12-10T08:20:23;18.73;;;11.13;;
6825;SDS011;3451;52.476;13.316;2022-12-10T08:22:50;17.83;;;10.33;;
6825;SDS011;3451;52.476;13.316;2022-12-10T08:25:16;16.77;;;10.27;;
6825;SDS011;3451;52.476;13.316;2022-12-10T08:27:43;17.47;;;11.10;;
6825;SDS011;3451;52.476;13.316;2022-12-10T08:30:09;16.93;;;11.27;;
6825;SDS011;3451;52.476;13.316;2022-12-10T08:32:36;18.87;;;11.30;;
6825;SDS011;3451;52.476;13.316;2022-12-10T08:35:02;17.23;;;11.20;;
6825;SDS011;3451;52.476;13.316;2022-12-10T08:37:28;19.43;;;12.10;;
6825;SDS011;3451;52.476;13.316;2022-12-10T08:39:55;19.30;;;11.20;;
6825;SDS011;3451;52.476;13.316;2022-12-10T08:42:21;17.03;;;11.00;;
6825;SDS011;3451;52.476;13.316;2022-12-10T08:44:47;19.63;;;11.80;;
6825;SDS011;3451;52.476;13.316;2022-12-10T08:47:13;17.70;;;11.47;;
6825;SDS011;3451;52.476;13.316;2022-12-10T08:49:39;18.77;;;12.13;;
6825;SDS011;3451;52.476;13.316;2022-12-10T08:52:06;17.80;;;12.20;;
6825;SDS011;3451;52.476;13.316;2022-12-10T08:54:32;18.60;;;11.90;;
6825;SDS011;3451;52.476;13.316;2022-12-10T08:56:58;17.47;;;11.70;;
6825;SDS011;3451;52.476;13.316;2022-12-10T08:59:26;19.07;;;12.53;;
6825;SDS011;3451;52.476;13.316;2022-12-10T09:01:52;18.30;;;11.00;;
6825;SDS011;3451;52.476;13.316;2022-12-10T09:04:22;19.27;;;11.97;;
6825;SDS011;3451;52.476;13.316;2022-12-10T09:06:49;18.63;;;11.83;;
6825;SDS011;3451;52.476;13.316;2022-12-10T09:09:16;16.60;;;11.50;;
6825;SDS011;3451;52.476;13.316;2022-12-10T09:11:42;19.33;;;11.57;;
6825;SDS011;3451;52.476;13.316;2022-12-10T09:14:10;20.00;;;12.00;;
6825;SDS011;3451;52.476;13.316;2022-12-10T09:16:36;20.97;;;11.37;;
6825;SDS011;3451;52.476;13.316;2022-12-10T09:19:03;17.20;;;11.40;;
6825;SDS011;3451;52.476;13.316;2022-12-10T09:21:30;18.50;;;12.17;;
6825;SDS011;3451;52.476;13.316;2022-12-10T09:23:59;21.53;;;12.17;;
6825;SDS011;3451;52.476;13.316;2022-12-10T09:26:26;20.57;;;13.07;;
6825;SDS011;3451;52.476;13.316;2022-12-10T09:28:52;20.10;;;12.40;;
6825;SDS011;3451;52.476;13.316;2022-12-10T09:31:19;21.53;;;12.13;;
6825;SDS011;3451;52.476;13.316;2022-12-10T09:33:46;19.03;;;12.17;;
6825;SDS011;3451;52.476;13.316;2022-12-10T09:36:13;18.23;;;11.77;;
6825;SDS011;3451;52.476;13.316;2022-12-10T09:38:41;18.93;;;12.53;;
6825;SDS011;3451;52.476;13.316;2022-12-10T09:43:41;20.97;;;12.83;;
6825;SDS011;3451;52.476;13.316;2022-12-10T09:51:21;20.97;;;12.13;;
6825;SDS011;3451;52.476;13.316;2022-12-10T09:53:47;20.17;;;12.30;;
6825;SDS011;3451;52.476;13.316;2022-12-10T09:56:18;20.27;;;12.80;;
6825;SDS011;3451;52.476;13.316;2022-12-10T09:58:45;20.67;;;12.20;;
6825;SDS011;3451;52.476;13.316;2022-12-10T10:01:12;20.73;;;13.33;;
6825;SDS011;3451;52.476;13.316;2022-12-10T10:03:41;18.97;;;12.23;;
6825;SDS011;3451;52.476;13.316;2022-12-10T10:06:14;19.57;;;13.00;;
6825;SDS011;3451;52.476;13.316;2022-12-10T10:08:41;20.03;;;13.10;;
6825;SDS011;3451;52.476;13.316;2022-12-10T10:11:11;21.07;;;12.73;;
6825;SDS011;3451;52.476;13.316;2022-12-10T10:13:39;19.37;;;12.40;;
6825;SDS011;3451;52.476;13.316;2022-12-10T10:16:16;19.07;;;12.17;;
6825;SDS011;3451;52.476;13.316;2022-12-10T10:18:45;22.23;;;13.07;;
6825;SDS011;3451;52.476;13.316;2022-12-10T10:21:21;18.50;;;12.07;;
6825;SDS011;3451;52.476;13.316;2022-12-10T10:23:47;18.93;;;12.70;;
6825;SDS011;3451;52.476;13.316;2022-12-10T10:26:14;19.93;;;12.30;;
6825;SDS011;3451;52.476;13.316;2022-12-10T10:28:40;21.10;;;13.07;;
6825;SDS011;3451;52.476;13.316;2022-12-10T10:31:12;19.50;;;12.80;;
6825;SDS011;3451;52.476;13.316;2022-12-10T10:33:54;19.57;;;12.43;;
6825;SDS011;3451;52.476;13.316;2022-12-10T10:36:23;21.23;;;12.93;;
6825;SDS011;3451;52.476;13.316;2022-12-10T10:38:50;24.37;;;13.53;;
6825;SDS011;3451;52.476;13.316;2022-12-10T10:41:16;18.10;;;11.60;;
6825;SDS011;3451;52.476;13.316;2022-12-10T10:43:43;20.50;;;12.40;;
6825;SDS011;3451;52.476;13.316;2022-12-10T10:46:17;20.67;;;12.53;;
6825;SDS011;3451;52.476;13.316;2022-12-10T10:48:49;20.90;;;12.67;;
6825;SDS011;3451;52.476;13.316;2022-12-10T10:51:20;21.37;;;13.00;;
6825;SDS011;3451;52.476;13.316;2022-12-10T10:53:52;23.43;;;13.20;;
6825;SDS011;3451;52.476;13.316;2022-12-10T10:56:24;22.63;;;13.87;;
6825;SDS011;3451;52.476;13.316;2022-12-10T10:58:58;18.53;;;12.63;;
6825;SDS011;3451;52.476;13.316;2022-12-10T11:01:27;22.83;;;12.77;;
6825;SDS011;3451;52.476;13.316;2022-12-10T11:04:08;20.17;;;12.57;;
6825;SDS011;3451;52.476;13.316;2022-12-10T11:06:35;20.90;;;13.30;;
6825;SDS011;3451;52.476;13.316;2022-12-10T11:09:01;19.47;;;12.40;;
6825;SDS011;3451;52.476;13.316;2022-12-10T11:11:32;22.97;;;13.60;;
6825;SDS011;3451;52.476;13.316;2022-12-10T11:14:15;18.07;;;11.70;;
6825;SDS011;3451;52.476;13.316;2022-12-10T11:16:48;18.70;;;12.50;;
6825;SDS011;3451;52.476;13.316;2022-12-10T11:19:21;20.07;;;12.27;;
6825;SDS011;3451;52.476;13.316;2022-12-10T11:21:48;19.07;;;11.93;;
6825;SDS011;3451;52.476;13.316;2022-12-10T11:24:15;18.80;;;12.00;;
6825;SDS011;3451;52.476;13.316;2022-12-10T11:29:22;20.63;;;12.87;;
6825;SDS011;3451;52.476;13.316;2022-12-10T11:34:20;21.43;;;13.63;;
6825;SDS011;3451;52.476;13.316;2022-12-10T11:36:56;19.70;;;12.60;;
6825;SDS011;3451;52.476;13.316;2022-12-10T11:44:32;22.70;;;13.37;;
6825;SDS011;3451;52.476;13.316;2022-12-10T11:47:20;25.20;;;13.47;;
6825;SDS011;3451;52.476;13.316;2022-12-10T11:50:04;20.70;;;12.80;;
6825;SDS011;3451;52.476;13.316;2022-12-10T11:58:14;19.67;;;14.50;;
6825;SDS011;3451;52.476;13.316;2022-12-10T12:00:52;20.23;;;12.87;;
6825;SDS011;3451;52.476;13.316;2022-12-10T12:03:40;21.63;;;12.90;;
6825;SDS011;3451;52.476;13.316;2022-12-10T12:06:27;22.00;;;13.03;;
6825;SDS011;3451;52.476;13.316;2022-12-10T12:14:31;18.73;;;12.77;;
6825;SDS011;3451;52.476;13.316;2022-12-10T12:19:28;21.47;;;13.27;;
6825;SDS011;3451;52.476;13.316;2022-12-10T12:21:54;25.43;;;12.97;;
6825;SDS011;3451;52.476;13.316;2022-12-10T12:24:22;22.10;;;13.57;;
6825;SDS011;3451;52.476;13.316;2022-12-10T12:26:58;21.90;;;13.33;;
6825;SDS011;3451;52.476;13.316;2022-12-10T12:29:30;26.50;;;13.70;;
6825;SDS011;3451;52.476;13.316;2022-12-10T12:32:04;22.63;;;14.43;;
6825;SDS011;3451;52.476;13.316;2022-12-10T12:37:12;23.00;;;14.07;;
6825;SDS011;3451;52.476;13.316;2022-12-10T12:42:26;24.43;;;14.07;;
6825;SDS011;3451;52.476;13.316;2022-12-10T12:49:46;22.80;;;14.33;;
6825;SDS011;3451;52.476;13.316;2022-12-10T12:54:40;22.03;;;13.67;;
6825;SDS011;3451;52.476;13.316;2022-12-10T12:57:14;22.50;;;14.10;;
6825;SDS011;3451;52.476;13.316;2022-12-10T13:04:45;20.43;;;13.43;;
6825;SDS011;3451;52.476;13.316;2022-12-10T13:09:47;21.73;;;13.27;;
6825;SDS011;3451;52.476;13.316;2022-12-10T13:17:26;23.17;;;13.60;;
6825;SDS011;3451;52.476;13.316;2022-12-10T13:19:53;21.03;;;13.67;;
6825;SDS011;3451;52.476;13.316;2022-12-10T13:22:41;22.80;;;14.60;;
6825;SDS011;3451;52.476;13.316;2022-12-10T13:25:14;22.00;;;13.33;;
6825;SDS011;3451;52.476;13.316;2022-12-10T13:27:42;21.50;;;13.23;;
6825;SDS011;3451;52.476;13.316;2022-12-10T13:30:33;23.47;;;14.20;;
6825;SDS011;3451;52.476;13.316;2022-12-10T13:33:09;24.67;;;15.13;;
6825;SDS011;3451;52.476;13.316;2022-12-10T13:35:58;25.93;;;15.20;;
6825;SDS011;3451;52.476;13.316;2022-12-10T13:38:24;26.03;;;15.70;;
6825;SDS011;3451;52.476;13.316;2022-12-10T13:40:59;23.77;;;14.50;;
6825;SDS011;3451;52.476;13.316;2022-12-10T13:43:51;21.93;;;14.07;;
6825;SDS011;3451;52.476;13.316;2022-12-10T13:46:52;23.33;;;14.10;;
6825;SDS011;3451;52.476;13.316;2022-12-10T13:49:23;26.03;;;15.07;;
6825;SDS011;3451;52.476;13.316;2022-12-10T13:52:00;22.00;;;14.00;;
6825;SDS011;3451;52.476;13.316;2022-12-10T13:54:34;21.73;;;14.40;;
6825;SDS011;3451;52.476;13.316;2022-12-10T14:04:52;24.77;;;14.93;;
6825;SDS011;3451;52.476;13.316;2022-12-10T14:07:26;26.80;;;14.80;;
6825;SDS011;3451;52.476;13.316;2022-12-10T14:09:53;27.63;;;16.17;;
6825;SDS011;3451;52.476;13.316;2022-12-10T14:14:52;28.03;;;14.93;;
6825;SDS011;3451;52.476;13.316;2022-12-10T14:17:19;25.10;;;14.27;;
6825;SDS011;3451;52.476;13.316;2022-12-10T14:19:47;25.57;;;14.80;;
6825;SDS011;3451;52.476;13.316;2022-12-10T14:23:03;28.73;;;14.77;;
6825;SDS011;3451;52.476;13.316;2022-12-10T14:25:02;23.73;;;14.83;;
6825;SDS011;3451;52.476;13.316;2022-12-10T14:27:30;26.03;;;14.77;;
6825;SDS011;3451;52.476;13.316;2022-12-10T14:30:04;29.37;;;15.20;;
6825;SDS011;3451;52.476;13.316;2022-12-10T14:32:34;27.73;;;14.73;;
6825;SDS011;3451;52.476;13.316;2022-12-10T14:35:01;26.10;;;13.67;;
6825;SDS011;3451;52.476;13.316;2022-12-10T14:37:30;28.93;;;14.07;;
6825;SDS011;3451;52.476;13.316;2022-12-10T14:39:56;29.23;;;14.57;;
6825;SDS011;3451;52.476;13.316;2022-12-10T14:42:23;29.37;;;14.87;;
6825;SDS011;3451;52.476;13.316;2022-12-10T14:44:59;30.10;;;15.30;;
6825;SDS011;3451;52.476;13.316;2022-12-10T14:47:26;27.77;;;14.03;;
6825;SDS011;3451;52.476;13.316;2022-12-10T14:49:53;27.60;;;14.93;;
6825;SDS011;3451;52.476;13.316;2022-12-10T14:52:21;28.27;;;15.00;;
6825;SDS011;3451;52.476;13.316;2022-12-10T14:54:48;29.80;;;14.87;;
6825;SDS011;3451;52.476;13.316;2022-12-10T14:57:18;26.17;;;14.37;;
6825;SDS011;3451;52.476;13.316;2022-12-10T14:59:49;28.17;;;15.37;;
6825;SDS011;3451;52.476;13.316;2022-12-10T15:02:28;28.10;;;14.43;;
6825;SDS011;3451;52.476;13.316;2022-12-10T15:04:55;30.17;;;15.40;;
6825;SDS011;3451;52.476;13.316;2022-12-10T15:07:23;29.70;;;14.67;;
6825;SDS011;3451;52.476;13.316;2022-12-10T15:09:50;27.03;;;15.00;;
6825;SDS011;3451;52.476;13.316;2022-12-10T15:12:28;31.27;;;14.70;;
6825;SDS011;3451;52.476;13.316;2022-12-10T15:14:55;30.03;;;14.10;;
6825;SDS011;3451;52.476;13.316;2022-12-10T15:17:39;31.93;;;14.63;;
6825;SDS011;3451;52.476;13.316;2022-12-10T15:20:27;30.20;;;14.63;;
6825;SDS011;3451;52.476;13.316;2022-12-10T15:22:53;30.27;;;15.07;;
6825;SDS011;3451;52.476;13.316;2022-12-10T15:25:22;31.80;;;15.33;;
6825;SDS011;3451;52.476;13.316;2022-12-10T15:27:56;32.87;;;14.97;;
6825;SDS011;3451;52.476;13.316;2022-12-10T15:30:33;36.83;;;15.50;;
6825;SDS011;3451;52.476;13.316;2022-12-10T15:33:00;30.40;;;14.47;;
6825;SDS011;3451;52.476;13.316;2022-12-10T15:35:26;34.93;;;14.50;;
6825;SDS011;3451;52.476;13.316;2022-12-10T15:37:52;29.97;;;14.43;;
6825;SDS011;3451;52.476;13.316;2022-12-10T15:40:23;31.30;;;15.30;;
6825;SDS011;3451;52.476;13.316;2022-12-10T15:42:49;31.23;;;15.20;;
6825;SDS011;3451;52.476;13.316;2022-12-10T15:45:23;30.87;;;15.23;;
6825;SDS011;3451;52.476;13.316;2022-12-10T15:47:52;35.23;;;16.90;;
6825;SDS011;3451;52.476;13.316;2022-12-10T15:50:19;31.00;;;16.07;;
6825;SDS011;3451;52.476;13.316;2022-12-10T15:52:49;35.87;;;15.43;;
6825;SDS011;3451;52.476;13.316;2022-12-10T15:55:16;31.53;;;14.87;;
6825;SDS011;3451;52.476;13.316;2022-12-10T15:57:42;34.43;;;16.67;;
6825;SDS011;3451;52.476;13.316;2022-12-10T16:00:14;39.80;;;16.63;;
6825;SDS011;3451;52.476;13.316;2022-12-10T16:02:47;37.77;;;15.20;;
6825;SDS011;3451;52.476;13.316;2022-12-10T16:05:19;33.23;;;16.10;;